sensor_id;sensor_type;location;lat;lon;timestamp;temperature;humidity
28835;DHT22;15969;51.536;11.884;2023-06-22T00:00:49;21.30;99.90
28835;DHT22;15969;51.536;11.884;2023-06-22T00:03:16;21.30;99.90
28835;DHT22;15969;51.536;11.884;2023-06-22T00:05:43;21.20;99.90
28835;DHT22;15969;51.536;11.884;2023-06-22T00:08:08;21.10;99.90
28835;DHT22;15969;51.536;11.884;2023-06-22T00:10:34;21.10;99.90
28835;DHT22;15969;51.536;11.884;2023-06-22T00:13:00;21.10;99.90
28835;DHT22;15969;51.536;11.884;2023-06-22T00:15:26;21.00;99.90
28835;DHT22;15969;51.536;11.884;2023-06-22T00:17:52;21.00;99.90
28835;DHT22;15969;51.536;11.884;2023-06-22T00:20:17;21.00;99.90
28835;DHT22;15969;51.536;11.884;2023-06-22T00:22:44;20.90;99.90
28835;DHT22;15969;51.536;11.884;2023-06-22T00:25:11;20.80;99.90
28835;DHT22;15969;51.536;11.884;2023-06-22T00:27:37;20.70;99.90
28835;DHT22;15969;51.536;11.884;2023-06-22T00:30:03;20.70;99.90
28835;DHT22;15969;51.536;11.884;2023-06-22T00:32:29;20.70;99.90
28835;DHT22;15969;51.536;11.884;2023-06-22T00:34:55;20.70;99.90
28835;DHT22;15969;51.536;11.884;2023-06-22T00:37:21;20.70;99.90
28835;DHT22;15969;51.536;11.884;2023-06-22T00:39:53;20.70;99.90
28835;DHT22;15969;51.536;11.884;2023-06-22T00:42:19;20.70;99.90
28835;DHT22;15969;51.536;11.884;2023-06-22T00:44:44;20.70;99.90
28835;DHT22;15969;51.536;11.884;2023-06-22T00:47:11;20.70;99.90
28835;DHT22;15969;51.536;11.884;2023-06-22T00:49:38;20.70;99.90
28835;DHT22;15969;51.536;11.884;2023-06-22T00:52:06;20.60;99.90
28835;DHT22;15969;51.536;11.884;2023-06-22T00:54:35;20.70;99.90
28835;DHT22;15969;51.536;11.884;2023-06-22T00:57:02;20.60;99.90
28835;DHT22;15969;51.536;11.884;2023-06-22T00:59:28;20.60;99.90
28835;DHT22;15969;51.536;11.884;2023-06-22T01:01:54;20.60;99.90
28835;DHT22;15969;51.536;11.884;2023-06-22T01:04:23;20.60;99.90
28835;DHT22;15969;51.536;11.884;2023-06-22T01:07:04;20.60;99.90
28835;DHT22;15969;51.536;11.884;2023-06-22T01:10:11;20.60;99.90
28835;DHT22;15969;51.536;11.884;2023-06-22T01:12:48;20.60;99.90
28835;DHT22;15969;51.536;11.884;2023-06-22T01:15:35;20.60;99.90
28835;DHT22;15969;51.536;11.884;2023-06-22T01:18:08;20.60;99.90
28835;DHT22;15969;51.536;11.884;2023-06-22T01:20:35;20.50;99.90
28835;DHT22;15969;51.536;11.884;2023-06-22T01:26:31;20.60;99.90
28835;DHT22;15969;51.536;11.884;2023-06-22T01:29:04;20.50;99.90
28835;DHT22;15969;51.536;11.884;2023-06-22T01:31:33;20.50;99.90
28835;DHT22;15969;51.536;11.884;2023-06-22T01:34:02;20.50;99.90
28835;DHT22;15969;51.536;11.884;2023-06-22T01:36:30;20.60;99.90
28835;DHT22;15969;51.536;11.884;2023-06-22T01:38:58;20.60;99.90
28835;DHT22;15969;51.536;11.884;2023-06-22T01:41:26;20.60;99.90
28835;DHT22;15969;51.536;11.884;2023-06-22T01:43:54;20.60;99.90
28835;DHT22;15969;51.536;11.884;2023-06-22T01:46:21;20.60;99.90
28835;DHT22;15969;51.536;11.884;2023-06-22T01:48:47;20.60;99.90
28835;DHT22;15969;51.536;11.884;2023-06-22T01:51:13;20.60;99.90
28835;DHT22;15969;51.536;11.884;2023-06-22T01:53:39;20.60;99.90
28835;DHT22;15969;51.536;11.884;2023-06-22T01:56:05;20.60;99.90
28835;DHT22;15969;51.536;11.884;2023-06-22T01:58:32;20.60;99.90
28835;DHT22;15969;51.536;11.884;2023-06-22T02:01:13;20.60;99.90
28835;DHT22;15969;51.536;11.884;2023-06-22T02:04:03;20.60;99.90
28835;DHT22;15969;51.536;11.884;2023-06-22T02:06:34;20.60;99.90
28835;DHT22;15969;51.536;11.884;2023-06-22T02:09:09;20.50;99.90
28835;DHT22;15969;51.536;11.884;2023-06-22T02:11:36;20.50;99.90
28835;DHT22;15969;51.536;11.884;2023-06-22T02:14:02;20.50;99.90
28835;DHT22;15969;51.536;11.884;2023-06-22T02:16:31;20.50;99.90
28835;DHT22;15969;51.536;11.884;2023-06-22T02:18:57;20.50;99.90
28835;DHT22;15969;51.536;11.884;2023-06-22T02:21:28;20.50;99.90
28835;DHT22;15969;51.536;11.884;2023-06-22T02:23:55;20.40;99.90
28835;DHT22;15969;51.536;11.884;2023-06-22T02:26:21;20.40;99.90
28835;DHT22;15969;51.536;11.884;2023-06-22T02:28:46;20.30;99.90
28835;DHT22;15969;51.536;11.884;2023-06-22T02:31:12;20.30;99.90
28835;DHT22;15969;51.536;11.884;2023-06-22T02:33:38;20.20;99.90
28835;DHT22;15969;51.536;11.884;2023-06-22T02:36:04;20.20;99.90
28835;DHT22;15969;51.536;11.884;2023-06-22T02:38:31;20.20;99.90
28835;DHT22;15969;51.536;11.884;2023-06-22T02:40:58;20.10;99.90
28835;DHT22;15969;51.536;11.884;2023-06-22T02:43:25;20.10;99.90
28835;DHT22;15969;51.536;11.884;2023-06-22T02:45:51;20.00;99.90
28835;DHT22;15969;51.536;11.884;2023-06-22T02:48:16;19.90;99.90
28835;DHT22;15969;51.536;11.884;2023-06-22T02:50:42;19.90;99.90
28835;DHT22;15969;51.536;11.884;2023-06-22T02:53:07;19.80;99.90
28835;DHT22;15969;51.536;11.884;2023-06-22T02:55:33;19.70;99.90
28835;DHT22;15969;51.536;11.884;2023-06-22T02:57:59;19.60;99.90
28835;DHT22;15969;51.536;11.884;2023-06-22T03:00:25;19.60;99.90
28835;DHT22;15969;51.536;11.884;2023-06-22T03:02:55;19.60;99.90
28835;DHT22;15969;51.536;11.884;2023-06-22T03:05:22;19.50;99.90
28835;DHT22;15969;51.536;11.884;2023-06-22T03:07:48;19.50;99.90
28835;DHT22;15969;51.536;11.884;2023-06-22T03:10:14;19.40;99.90
28835;DHT22;15969;51.536;11.884;2023-06-22T03:12:41;19.40;99.90
28835;DHT22;15969;51.536;11.884;2023-06-22T03:15:09;19.40;99.90
28835;DHT22;15969;51.536;11.884;2023-06-22T03:17:38;19.30;99.90
28835;DHT22;15969;51.536;11.884;2023-06-22T03:20:05;19.30;99.90
28835;DHT22;15969;51.536;11.884;2023-06-22T03:22:43;19.30;99.90
28835;DHT22;15969;51.536;11.884;2023-06-22T03:25:09;19.30;99.90
28835;DHT22;15969;51.536;11.884;2023-06-22T03:27:42;19.30;99.90
28835;DHT22;15969;51.536;11.884;2023-06-22T03:30:10;19.30;99.90
28835;DHT22;15969;51.536;11.884;2023-06-22T03:32:37;19.30;99.90
28835;DHT22;15969;51.536;11.884;2023-06-22T03:35:03;19.30;99.90
28835;DHT22;15969;51.536;11.884;2023-06-22T03:37:29;19.40;99.90
28835;DHT22;15969;51.536;11.884;2023-06-22T03:39:54;19.40;99.90
28835;DHT22;15969;51.536;11.884;2023-06-22T03:42:20;19.40;99.90
28835;DHT22;15969;51.536;11.884;2023-06-22T03:44:46;19.40;99.90
28835;DHT22;15969;51.536;11.884;2023-06-22T03:47:12;19.40;99.90
28835;DHT22;15969;51.536;11.884;2023-06-22T03:49:38;19.40;99.90
28835;DHT22;15969;51.536;11.884;2023-06-22T03:52:04;19.40;99.90
28835;DHT22;15969;51.536;11.884;2023-06-22T03:54:30;19.50;99.90
28835;DHT22;15969;51.536;11.884;2023-06-22T03:56:57;19.50;99.90
28835;DHT22;15969;51.536;11.884;2023-06-22T03:59:23;19.50;99.90
28835;DHT22;15969;51.536;11.884;2023-06-22T04:01:49;19.50;99.90
28835;DHT22;15969;51.536;11.884;2023-06-22T04:04:16;19.60;99.90
28835;DHT22;15969;51.536;11.884;2023-06-22T04:06:42;19.60;99.90
28835;DHT22;15969;51.536;11.884;2023-06-22T04:09:08;19.60;99.90
28835;DHT22;15969;51.536;11.884;2023-06-22T04:11:34;19.70;99.90
28835;DHT22;15969;51.536;11.884;2023-06-22T04:13:59;19.80;99.90
28835;DHT22;15969;51.536;11.884;2023-06-22T04:16:25;19.80;99.90
28835;DHT22;15969;51.536;11.884;2023-06-22T04:18:51;19.90;99.90
28835;DHT22;15969;51.536;11.884;2023-06-22T04:21:17;19.90;99.90
28835;DHT22;15969;51.536;11.884;2023-06-22T04:23:45;20.00;99.90
28835;DHT22;15969;51.536;11.884;2023-06-22T04:26:11;20.10;99.90
28835;DHT22;15969;51.536;11.884;2023-06-22T04:28:39;20.20;99.90
28835;DHT22;15969;51.536;11.884;2023-06-22T04:31:04;20.20;99.90
28835;DHT22;15969;51.536;11.884;2023-06-22T04:33:30;20.20;99.90
28835;DHT22;15969;51.536;11.884;2023-06-22T04:35:56;20.30;99.90
28835;DHT22;15969;51.536;11.884;2023-06-22T04:38:23;20.30;99.90
28835;DHT22;15969;51.536;11.884;2023-06-22T04:40:50;20.40;99.90
28835;DHT22;15969;51.536;11.884;2023-06-22T04:43:16;20.40;99.90
28835;DHT22;15969;51.536;11.884;2023-06-22T04:45:41;20.50;99.90
28835;DHT22;15969;51.536;11.884;2023-06-22T04:48:07;20.50;99.90
28835;DHT22;15969;51.536;11.884;2023-06-22T04:50:41;20.60;99.90
28835;DHT22;15969;51.536;11.884;2023-06-22T04:53:07;20.70;99.90
28835;DHT22;15969;51.536;11.884;2023-06-22T04:55:35;20.70;99.90
28835;DHT22;15969;51.536;11.884;2023-06-22T04:58:03;20.70;99.90
28835;DHT22;15969;51.536;11.884;2023-06-22T05:00:30;20.80;99.90
28835;DHT22;15969;51.536;11.884;2023-06-22T05:02:56;20.80;99.90
28835;DHT22;15969;51.536;11.884;2023-06-22T05:05:23;20.90;99.90
28835;DHT22;15969;51.536;11.884;2023-06-22T05:07:50;20.90;99.90
28835;DHT22;15969;51.536;11.884;2023-06-22T05:10:19;21.00;99.90
28835;DHT22;15969;51.536;11.884;2023-06-22T05:12:46;21.00;99.90
28835;DHT22;15969;51.536;11.884;2023-06-22T05:15:12;21.00;99.90
28835;DHT22;15969;51.536;11.884;2023-06-22T05:17:38;21.10;99.90
28835;DHT22;15969;51.536;11.884;2023-06-22T05:20:12;21.10;99.90
28835;DHT22;15969;51.536;11.884;2023-06-22T05:22:39;21.10;99.90
28835;DHT22;15969;51.536;11.884;2023-06-22T05:25:09;21.20;99.90
28835;DHT22;15969;51.536;11.884;2023-06-22T05:27:36;21.20;99.90
28835;DHT22;15969;51.536;11.884;2023-06-22T05:30:06;21.20;99.90
28835;DHT22;15969;51.536;11.884;2023-06-22T05:32:32;21.20;99.90
28835;DHT22;15969;51.536;11.884;2023-06-22T05:34:58;21.30;99.90
28835;DHT22;15969;51.536;11.884;2023-06-22T05:37:24;21.30;99.90
28835;DHT22;15969;51.536;11.884;2023-06-22T05:39:50;21.30;99.90
28835;DHT22;15969;51.536;11.884;2023-06-22T05:42:16;21.40;99.90
28835;DHT22;15969;51.536;11.884;2023-06-22T05:44:41;21.40;99.90
28835;DHT22;15969;51.536;11.884;2023-06-22T05:47:07;21.40;99.90
28835;DHT22;15969;51.536;11.884;2023-06-22T05:49:33;21.40;99.90
28835;DHT22;15969;51.536;11.884;2023-06-22T05:51:59;21.50;99.90
28835;DHT22;15969;51.536;11.884;2023-06-22T05:54:26;21.50;99.90
28835;DHT22;15969;51.536;11.884;2023-06-22T05:56:53;21.60;99.90
28835;DHT22;15969;51.536;11.884;2023-06-22T05:59:19;21.60;99.90
28835;DHT22;15969;51.536;11.884;2023-06-22T06:01:44;21.60;99.90
28835;DHT22;15969;51.536;11.884;2023-06-22T06:04:12;21.70;99.90
28835;DHT22;15969;51.536;11.884;2023-06-22T06:06:37;21.80;99.90
28835;DHT22;15969;51.536;11.884;2023-06-22T06:09:04;21.90;99.90
28835;DHT22;15969;51.536;11.884;2023-06-22T06:11:30;22.00;99.90
28835;DHT22;15969;51.536;11.884;2023-06-22T06:13:55;22.10;99.90
28835;DHT22;15969;51.536;11.884;2023-06-22T06:16:22;22.20;99.90
28835;DHT22;15969;51.536;11.884;2023-06-22T06:18:48;22.20;99.90
28835;DHT22;15969;51.536;11.884;2023-06-22T06:21:16;22.30;99.90
28835;DHT22;15969;51.536;11.884;2023-06-22T06:23:42;22.40;99.90
28835;DHT22;15969;51.536;11.884;2023-06-22T06:26:08;22.40;99.90
28835;DHT22;15969;51.536;11.884;2023-06-22T06:28:35;22.40;99.90
28835;DHT22;15969;51.536;11.884;2023-06-22T06:31:00;22.50;99.90
28835;DHT22;15969;51.536;11.884;2023-06-22T06:33:26;22.60;99.90
28835;DHT22;15969;51.536;11.884;2023-06-22T06:35:52;22.60;99.90
28835;DHT22;15969;51.536;11.884;2023-06-22T06:38:17;22.60;99.90
28835;DHT22;15969;51.536;11.884;2023-06-22T06:40:43;22.70;99.90
28835;DHT22;15969;51.536;11.884;2023-06-22T06:43:10;22.70;99.90
28835;DHT22;15969;51.536;11.884;2023-06-22T06:45:36;22.80;99.90
28835;DHT22;15969;51.536;11.884;2023-06-22T06:48:01;22.80;99.90
28835;DHT22;15969;51.536;11.884;2023-06-22T06:50:27;22.80;99.90
28835;DHT22;15969;51.536;11.884;2023-06-22T06:52:53;22.90;99.90
28835;DHT22;15969;51.536;11.884;2023-06-22T06:55:19;23.00;99.90
28835;DHT22;15969;51.536;11.884;2023-06-22T06:57:45;23.00;99.90
28835;DHT22;15969;51.536;11.884;2023-06-22T07:00:14;23.10;99.90
28835;DHT22;15969;51.536;11.884;2023-06-22T07:02:42;23.10;99.90
28835;DHT22;15969;51.536;11.884;2023-06-22T07:05:09;23.10;99.90
28835;DHT22;15969;51.536;11.884;2023-06-22T07:07:36;23.20;99.90
28835;DHT22;15969;51.536;11.884;2023-06-22T07:10:03;23.30;99.90
28835;DHT22;15969;51.536;11.884;2023-06-22T07:12:30;23.30;99.90
28835;DHT22;15969;51.536;11.884;2023-06-22T07:15:06;23.40;99.90
28835;DHT22;15969;51.536;11.884;2023-06-22T07:17:36;23.50;99.90
28835;DHT22;15969;51.536;11.884;2023-06-22T07:22:33;23.60;99.90
28835;DHT22;15969;51.536;11.884;2023-06-22T07:24:58;23.70;99.90
28835;DHT22;15969;51.536;11.884;2023-06-22T07:27:24;23.80;99.90
28835;DHT22;15969;51.536;11.884;2023-06-22T07:29:50;23.80;99.90
28835;DHT22;15969;51.536;11.884;2023-06-22T07:32:16;23.90;99.90
28835;DHT22;15969;51.536;11.884;2023-06-22T07:34:41;24.10;99.90
28835;DHT22;15969;51.536;11.884;2023-06-22T07:37:07;24.20;99.90
28835;DHT22;15969;51.536;11.884;2023-06-22T07:39:33;24.40;99.90
28835;DHT22;15969;51.536;11.884;2023-06-22T07:41:59;24.50;99.90
28835;DHT22;15969;51.536;11.884;2023-06-22T07:44:25;24.60;99.90
28835;DHT22;15969;51.536;11.884;2023-06-22T07:46:50;24.60;99.90
28835;DHT22;15969;51.536;11.884;2023-06-22T07:49:17;24.70;99.90
28835;DHT22;15969;51.536;11.884;2023-06-22T07:51:43;24.80;99.90
28835;DHT22;15969;51.536;11.884;2023-06-22T07:54:09;24.90;99.90
28835;DHT22;15969;51.536;11.884;2023-06-22T07:56:36;24.90;99.90
28835;DHT22;15969;51.536;11.884;2023-06-22T07:59:02;25.00;99.90
28835;DHT22;15969;51.536;11.884;2023-06-22T08:01:29;25.10;99.90
28835;DHT22;15969;51.536;11.884;2023-06-22T08:03:54;25.10;99.90
28835;DHT22;15969;51.536;11.884;2023-06-22T08:06:20;25.20;99.90
28835;DHT22;15969;51.536;11.884;2023-06-22T08:08:46;25.20;99.90
28835;DHT22;15969;51.536;11.884;2023-06-22T08:11:13;25.20;99.90
28835;DHT22;15969;51.536;11.884;2023-06-22T08:13:39;25.30;99.90
28835;DHT22;15969;51.536;11.884;2023-06-22T08:16:05;25.40;99.90
28835;DHT22;15969;51.536;11.884;2023-06-22T08:18:30;25.40;99.90
28835;DHT22;15969;51.536;11.884;2023-06-22T08:20:56;25.50;99.90
28835;DHT22;15969;51.536;11.884;2023-06-22T08:23:22;25.60;99.90
28835;DHT22;15969;51.536;11.884;2023-06-22T08:25:47;25.70;99.90
28835;DHT22;15969;51.536;11.884;2023-06-22T08:28:15;25.70;99.90
28835;DHT22;15969;51.536;11.884;2023-06-22T08:30:41;25.80;99.90
28835;DHT22;15969;51.536;11.884;2023-06-22T08:33:06;25.80;99.90
28835;DHT22;15969;51.536;11.884;2023-06-22T08:35:32;25.90;99.90
28835;DHT22;15969;51.536;11.884;2023-06-22T08:37:58;26.10;99.90
28835;DHT22;15969;51.536;11.884;2023-06-22T08:40:25;26.10;99.90
28835;DHT22;15969;51.536;11.884;2023-06-22T08:42:50;26.20;99.90
28835;DHT22;15969;51.536;11.884;2023-06-22T08:45:16;26.30;99.90
28835;DHT22;15969;51.536;11.884;2023-06-22T08:47:42;26.30;99.90
28835;DHT22;15969;51.536;11.884;2023-06-22T08:50:11;26.50;99.90
28835;DHT22;15969;51.536;11.884;2023-06-22T08:52:38;26.60;99.90
28835;DHT22;15969;51.536;11.884;2023-06-22T08:55:07;26.70;99.90
28835;DHT22;15969;51.536;11.884;2023-06-22T08:57:34;26.80;99.90
28835;DHT22;15969;51.536;11.884;2023-06-22T08:59:59;26.80;99.90
28835;DHT22;15969;51.536;11.884;2023-06-22T09:02:28;26.80;99.90
28835;DHT22;15969;51.536;11.884;2023-06-22T09:04:59;26.80;99.90
28835;DHT22;15969;51.536;11.884;2023-06-22T09:07:29;26.90;99.90
28835;DHT22;15969;51.536;11.884;2023-06-22T09:09:56;27.00;99.90
28835;DHT22;15969;51.536;11.884;2023-06-22T09:12:22;27.00;99.90
28835;DHT22;15969;51.536;11.884;2023-06-22T09:14:51;27.00;99.90
28835;DHT22;15969;51.536;11.884;2023-06-22T09:17:17;27.10;99.90
28835;DHT22;15969;51.536;11.884;2023-06-22T09:19:42;27.20;99.90
28835;DHT22;15969;51.536;11.884;2023-06-22T09:22:08;27.20;99.90
28835;DHT22;15969;51.536;11.884;2023-06-22T09:24:34;27.30;99.90
28835;DHT22;15969;51.536;11.884;2023-06-22T09:26:59;27.50;99.90
28835;DHT22;15969;51.536;11.884;2023-06-22T09:29:25;27.50;99.90
28835;DHT22;15969;51.536;11.884;2023-06-22T09:31:51;27.60;99.90
28835;DHT22;15969;51.536;11.884;2023-06-22T09:34:18;27.60;99.90
28835;DHT22;15969;51.536;11.884;2023-06-22T09:36:46;27.70;99.90
28835;DHT22;15969;51.536;11.884;2023-06-22T09:39:11;27.80;99.90
28835;DHT22;15969;51.536;11.884;2023-06-22T09:41:37;27.80;99.90
28835;DHT22;15969;51.536;11.884;2023-06-22T09:44:03;28.00;99.90
28835;DHT22;15969;51.536;11.884;2023-06-22T09:46:29;28.10;99.90
28835;DHT22;15969;51.536;11.884;2023-06-22T09:48:54;28.10;99.90
28835;DHT22;15969;51.536;11.884;2023-06-22T09:51:20;28.10;99.90
28835;DHT22;15969;51.536;11.884;2023-06-22T09:53:47;28.10;99.90
28835;DHT22;15969;51.536;11.884;2023-06-22T09:56:13;28.20;99.90
28835;DHT22;15969;51.536;11.884;2023-06-22T09:58:44;28.30;99.90
28835;DHT22;15969;51.536;11.884;2023-06-22T10:01:11;28.40;99.90
28835;DHT22;15969;51.536;11.884;2023-06-22T10:03:37;28.40;99.90
28835;DHT22;15969;51.536;11.884;2023-06-22T10:06:03;28.50;99.90
28835;DHT22;15969;51.536;11.884;2023-06-22T10:08:29;28.60;99.90
28835;DHT22;15969;51.536;11.884;2023-06-22T10:10:54;28.70;99.90
28835;DHT22;15969;51.536;11.884;2023-06-22T10:13:20;28.90;99.90
28835;DHT22;15969;51.536;11.884;2023-06-22T10:15:46;28.90;99.90
28835;DHT22;15969;51.536;11.884;2023-06-22T10:18:16;29.10;99.90
28835;DHT22;15969;51.536;11.884;2023-06-22T10:20:42;29.10;99.90
28835;DHT22;15969;51.536;11.884;2023-06-22T10:23:08;29.10;99.90
28835;DHT22;15969;51.536;11.884;2023-06-22T10:25:34;29.20;99.50
28835;DHT22;15969;51.536;11.884;2023-06-22T10:27:59;29.30;99.70
28835;DHT22;15969;51.536;11.884;2023-06-22T10:32:51;29.40;97.70
28835;DHT22;15969;51.536;11.884;2023-06-22T10:35:17;29.50;98.50
28835;DHT22;15969;51.536;11.884;2023-06-22T10:37:46;29.60;97.20
28835;DHT22;15969;51.536;11.884;2023-06-22T10:42:42;29.70;99.90
28835;DHT22;15969;51.536;11.884;2023-06-22T10:45:08;29.90;97.20
28835;DHT22;15969;51.536;11.884;2023-06-22T10:47:34;29.80;96.50
28835;DHT22;15969;51.536;11.884;2023-06-22T10:52:27;30.00;97.70
28835;DHT22;15969;51.536;11.884;2023-06-22T10:54:52;30.20;95.80
28835;DHT22;15969;51.536;11.884;2023-06-22T10:57:18;30.30;96.10
28835;DHT22;15969;51.536;11.884;2023-06-22T10:59:44;30.40;95.10
28835;DHT22;15969;51.536;11.884;2023-06-22T11:04:36;30.40;93.80
28835;DHT22;15969;51.536;11.884;2023-06-22T11:09:28;30.50;93.30
28835;DHT22;15969;51.536;11.884;2023-06-22T11:11:55;30.50;93.20
28835;DHT22;15969;51.536;11.884;2023-06-22T11:14:21;30.60;92.70
28835;DHT22;15969;51.536;11.884;2023-06-22T11:16:47;30.60;92.70
28835;DHT22;15969;51.536;11.884;2023-06-22T11:19:13;30.60;92.30
28835;DHT22;15969;51.536;11.884;2023-06-22T11:21:39;30.50;91.70
28835;DHT22;15969;51.536;11.884;2023-06-22T11:24:05;30.60;91.90
28835;DHT22;15969;51.536;11.884;2023-06-22T11:26:31;30.60;92.10
28835;DHT22;15969;51.536;11.884;2023-06-22T11:28:59;30.50;91.90
28835;DHT22;15969;51.536;11.884;2023-06-22T11:31:25;30.60;91.90
28835;DHT22;15969;51.536;11.884;2023-06-22T11:38:43;31.10;90.30
28835;DHT22;15969;51.536;11.884;2023-06-22T11:43:36;31.50;99.90
28835;DHT22;15969;51.536;11.884;2023-06-22T11:46:03;31.50;99.90
28835;DHT22;15969;51.536;11.884;2023-06-22T11:48:29;31.50;99.90
28835;DHT22;15969;51.536;11.884;2023-06-22T11:53:23;31.60;87.30
28835;DHT22;15969;51.536;11.884;2023-06-22T11:55:50;31.50;86.10
28835;DHT22;15969;51.536;11.884;2023-06-22T11:58:16;31.60;86.30
28835;DHT22;15969;51.536;11.884;2023-06-22T12:00:41;31.50;85.20
28835;DHT22;15969;51.536;11.884;2023-06-22T12:03:07;31.50;85.80
28835;DHT22;15969;51.536;11.884;2023-06-22T12:10:26;31.90;88.90
28835;DHT22;15969;51.536;11.884;2023-06-22T12:12:55;31.90;85.90
28835;DHT22;15969;51.536;11.884;2023-06-22T12:15:23;31.90;84.50
28835;DHT22;15969;51.536;11.884;2023-06-22T12:17:49;31.90;87.40
28835;DHT22;15969;51.536;11.884;2023-06-22T12:20:14;31.90;86.40
28835;DHT22;15969;51.536;11.884;2023-06-22T12:22:41;32.10;88.00
28835;DHT22;15969;51.536;11.884;2023-06-22T12:27:34;32.20;99.90
28835;DHT22;15969;51.536;11.884;2023-06-22T12:32:27;32.40;99.90
28835;DHT22;15969;51.536;11.884;2023-06-22T12:34:52;32.40;84.90
28835;DHT22;15969;51.536;11.884;2023-06-22T12:39:44;32.60;83.10
28835;DHT22;15969;51.536;11.884;2023-06-22T12:42:10;32.60;84.50
28835;DHT22;15969;51.536;11.884;2023-06-22T12:44:38;32.60;84.20
28835;DHT22;15969;51.536;11.884;2023-06-22T12:47:05;32.50;84.10
28835;DHT22;15969;51.536;11.884;2023-06-22T12:49:31;32.50;85.20
28835;DHT22;15969;51.536;11.884;2023-06-22T12:51:56;32.60;85.60
28835;DHT22;15969;51.536;11.884;2023-06-22T12:56:50;32.70;81.50
28835;DHT22;15969;51.536;11.884;2023-06-22T12:59:15;32.70;82.50
28835;DHT22;15969;51.536;11.884;2023-06-22T13:01:42;32.60;83.60
28835;DHT22;15969;51.536;11.884;2023-06-22T13:04:09;32.50;83.10
28835;DHT22;15969;51.536;11.884;2023-06-22T13:06:36;32.60;84.60
28835;DHT22;15969;51.536;11.884;2023-06-22T13:09:02;32.60;83.20
28835;DHT22;15969;51.536;11.884;2023-06-22T13:11:30;32.70;83.40
28835;DHT22;15969;51.536;11.884;2023-06-22T13:13:56;32.80;83.80
28835;DHT22;15969;51.536;11.884;2023-06-22T13:18:47;32.90;81.40
28835;DHT22;15969;51.536;11.884;2023-06-22T13:23:39;33.10;81.50
28835;DHT22;15969;51.536;11.884;2023-06-22T13:26:05;33.30;83.30
28835;DHT22;15969;51.536;11.884;2023-06-22T13:30:57;33.50;81.50
28835;DHT22;15969;51.536;11.884;2023-06-22T13:35:49;33.90;79.10
28835;DHT22;15969;51.536;11.884;2023-06-22T13:40:41;34.10;76.60
28835;DHT22;15969;51.536;11.884;2023-06-22T13:43:07;34.10;79.80
28835;DHT22;15969;51.536;11.884;2023-06-22T13:45:33;34.10;77.80
28835;DHT22;15969;51.536;11.884;2023-06-22T13:47:58;34.10;78.00
28835;DHT22;15969;51.536;11.884;2023-06-22T13:50:24;34.20;77.30
28835;DHT22;15969;51.536;11.884;2023-06-22T13:52:50;34.20;77.80
28835;DHT22;15969;51.536;11.884;2023-06-22T13:55:15;34.10;76.70
28835;DHT22;15969;51.536;11.884;2023-06-22T13:57:42;34.10;77.90
28835;DHT22;15969;51.536;11.884;2023-06-22T14:00:08;33.80;77.80
28835;DHT22;15969;51.536;11.884;2023-06-22T14:02:34;33.60;81.40
28835;DHT22;15969;51.536;11.884;2023-06-22T14:05:00;33.40;81.40
28835;DHT22;15969;51.536;11.884;2023-06-22T14:07:27;33.40;79.10
28835;DHT22;15969;51.536;11.884;2023-06-22T14:09:53;33.50;79.60
28835;DHT22;15969;51.536;11.884;2023-06-22T14:12:19;33.70;77.50
28835;DHT22;15969;51.536;11.884;2023-06-22T14:14:44;33.90;77.10
28835;DHT22;15969;51.536;11.884;2023-06-22T14:17:10;33.90;77.00
28835;DHT22;15969;51.536;11.884;2023-06-22T14:19:36;33.90;76.40
28835;DHT22;15969;51.536;11.884;2023-06-22T14:22:02;33.80;76.90
28835;DHT22;15969;51.536;11.884;2023-06-22T14:24:28;33.70;76.80
28835;DHT22;15969;51.536;11.884;2023-06-22T14:26:54;33.60;77.20
28835;DHT22;15969;51.536;11.884;2023-06-22T14:29:21;33.50;77.50
28835;DHT22;15969;51.536;11.884;2023-06-22T14:31:48;33.40;78.00
28835;DHT22;15969;51.536;11.884;2023-06-22T14:34:14;33.40;78.60
28835;DHT22;15969;51.536;11.884;2023-06-22T14:36:41;33.30;80.00
28835;DHT22;15969;51.536;11.884;2023-06-22T14:39:07;33.20;81.30
28835;DHT22;15969;51.536;11.884;2023-06-22T14:41:32;33.10;79.40
28835;DHT22;15969;51.536;11.884;2023-06-22T14:43:58;33.10;78.80
28835;DHT22;15969;51.536;11.884;2023-06-22T14:46:24;33.00;79.20
28835;DHT22;15969;51.536;11.884;2023-06-22T14:48:49;32.80;79.90
28835;DHT22;15969;51.536;11.884;2023-06-22T14:51:15;32.80;80.40
28835;DHT22;15969;51.536;11.884;2023-06-22T14:53:43;32.70;81.70
28835;DHT22;15969;51.536;11.884;2023-06-22T14:56:09;32.70;82.40
28835;DHT22;15969;51.536;11.884;2023-06-22T14:58:35;32.80;82.90
28835;DHT22;15969;51.536;11.884;2023-06-22T15:01:04;32.70;82.40
28835;DHT22;15969;51.536;11.884;2023-06-22T15:03:31;32.80;83.10
28835;DHT22;15969;51.536;11.884;2023-06-22T15:05:57;32.90;82.50
28835;DHT22;15969;51.536;11.884;2023-06-22T15:08:24;33.00;82.00
28835;DHT22;15969;51.536;11.884;2023-06-22T15:10:51;33.10;81.40
28835;DHT22;15969;51.536;11.884;2023-06-22T15:13:17;33.20;80.60
28835;DHT22;15969;51.536;11.884;2023-06-22T15:15:45;33.20;79.90
28835;DHT22;15969;51.536;11.884;2023-06-22T15:18:12;33.20;80.80
28835;DHT22;15969;51.536;11.884;2023-06-22T15:20:38;33.20;80.50
28835;DHT22;15969;51.536;11.884;2023-06-22T15:23:06;33.30;79.30
28835;DHT22;15969;51.536;11.884;2023-06-22T15:25:33;33.20;79.10
28835;DHT22;15969;51.536;11.884;2023-06-22T15:27:59;33.20;78.70
28835;DHT22;15969;51.536;11.884;2023-06-22T15:30:25;33.30;79.90
28835;DHT22;15969;51.536;11.884;2023-06-22T15:32:50;33.50;79.80
28835;DHT22;15969;51.536;11.884;2023-06-22T15:35:16;33.80;78.50
28835;DHT22;15969;51.536;11.884;2023-06-22T15:37:44;33.90;77.70
28835;DHT22;15969;51.536;11.884;2023-06-22T15:40:11;34.00;78.40
28835;DHT22;15969;51.536;11.884;2023-06-22T15:42:37;34.10;77.10
28835;DHT22;15969;51.536;11.884;2023-06-22T15:45:04;34.10;77.30
28835;DHT22;15969;51.536;11.884;2023-06-22T15:47:30;34.10;76.80
28835;DHT22;15969;51.536;11.884;2023-06-22T15:49:56;34.00;77.10
28835;DHT22;15969;51.536;11.884;2023-06-22T15:52:22;33.90;77.00
28835;DHT22;15969;51.536;11.884;2023-06-22T15:54:48;33.80;77.60
28835;DHT22;15969;51.536;11.884;2023-06-22T15:57:19;33.60;77.80
28835;DHT22;15969;51.536;11.884;2023-06-22T15:59:45;33.40;78.30
28835;DHT22;15969;51.536;11.884;2023-06-22T16:02:11;33.40;78.40
28835;DHT22;15969;51.536;11.884;2023-06-22T16:04:37;33.30;79.70
28835;DHT22;15969;51.536;11.884;2023-06-22T16:07:03;33.30;80.50